Time;durP1;ratioP1;P1;durP2;ratioP2;P2;SDS_P1;SDS_P2;PMS_P1;PMS_P2;Temp;Humidity;BMP_temperature;BMP_pressure;BME280_temperature;BME280_humidity;BME280_pressure;Samples;Min_cycle;Max_cycle;Signal;HPM_P1;HPM_P2
2022/07/21 00:01:29;;;;;;;;;;;;;;;29.44;43.13;94771.72;4997887;28;7403;-62
2022/07/21 00:03:55;;;;;;;;;;;;;;;29.44;42.82;94777.28;5008458;28;7117;-62
2022/07/21 00:06:23;;;;;;;;;;;;;;;29.43;43.21;94778.53;5007170;28;7187;-62
2022/07/21 00:08:51;;;;;;;;;;;;;;;29.42;42.65;94783.34;5013019;28;7225;-62
2022/07/21 00:11:18;;;;;;;;;;;;;;;29.41;43.05;94781.09;5014883;28;7149;-62
2022/07/21 00:13:55;;;;;;;;;;;;;;;29.41;42.74;94789.41;5012100;28;7774;-62
2022/07/21 00:16:29;;;;;;;;;;;;;;;29.42;42.90;94783.34;5010918;28;7051;-62
2022/07/21 00:18:59;;;;;;;;;;;;;;;29.42;43.17;94779.81;5008374;28;7371;-62
2022/07/21 00:21:27;;;;;;;;;;;;;;;29.41;42.81;94787.38;4993225;28;9093;-62
2022/07/21 00:23:53;;;;;;;;;;;;;;;29.39;43.35;94778.84;4989782;28;7639;-62
2022/07/21 00:26:20;;;;;;;;;;;;;;;29.41;42.54;94789.41;4992770;28;7258;-62
2022/07/21 00:28:46;;;;;;;;;;;;;;;29.41;43.38;94783.84;4991632;28;9398;-62
2022/07/21 00:31:15;;;;;;;;;;;;;;;29.38;43.04;94779.38;4987063;28;7471;-62
2022/07/21 00:33:41;;;;;;;;;;;;;;;29.39;42.58;94783.63;5006992;28;7277;-62
2022/07/21 00:36:11;;;;;;;;;;;;;;;29.37;43.09;94775.09;4991197;28;7284;-62
2022/07/21 00:38:40;;;;;;;;;;;;;;;29.38;43.28;94779.38;4991825;28;9612;-62
2022/07/21 00:41:41;;;;;;;;;;;;;;;29.37;43.29;94777.88;4990603;28;7088;-62
2022/07/21 00:44:29;;;;;;;;;;;;;;;29.36;43.18;94771.56;4985899;28;7036;-62
2022/07/21 00:47:07;;;;;;;;;;;;;;;29.37;43.22;94769.56;5009494;28;9086;-62
2022/07/21 00:49:33;;;;;;;;;;;;;;;29.34;43.74;94762.31;4995387;28;8793;-62
2022/07/21 00:51:59;;;;;;;;;;;;;;;29.33;43.30;94767.09;4992895;28;9039;-62
2022/07/21 00:54:25;;;;;;;;;;;;;;;29.34;42.86;94770.63;4992285;28;7252;-62
2022/07/21 00:56:51;;;;;;;;;;;;;;;29.32;43.28;94768.38;4995317;28;7083;-62
2022/07/21 00:59:31;;;;;;;;;;;;;;;29.32;42.79;94764.88;5005845;28;7399;-62
2022/07/21 01:01:57;;;;;;;;;;;;;;;29.32;43.79;94762.81;5009508;28;7447;-62
2022/07/21 01:04:24;;;;;;;;;;;;;;;29.33;43.11;94760.81;4979597;28;9043;-62
2022/07/21 01:07:00;;;;;;;;;;;;;;;29.33;43.73;94760.81;5012303;28;9023;-62
2022/07/21 01:09:35;;;;;;;;;;;;;;;29.34;43.71;94757.50;4998974;28;9157;-62
2022/07/21 01:12:18;;;;;;;;;;;;;;;29.31;43.63;94755.06;5014476;28;9064;-62
2022/07/21 01:14:54;;;;;;;;;;;;;;;29.34;43.23;94767.88;4973403;28;8612;-62
2022/07/21 01:17:35;;;;;;;;;;;;;;;29.33;43.70;94771.91;4996229;28;9551;-62
2022/07/21 01:20:06;;;;;;;;;;;;;;;29.32;43.36;94760.06;4991459;28;7091;-62
2022/07/21 01:22:47;;;;;;;;;;;;;;;29.30;43.78;94757.06;4994669;28;7095;-62
2022/07/21 01:25:24;;;;;;;;;;;;;;;29.31;43.96;94755.06;4997217;28;7065;-62
2022/07/21 01:28:04;;;;;;;;;;;;;;;29.29;43.76;94752.06;4991082;28;7865;-62
2022/07/21 01:30:31;;;;;;;;;;;;;;;29.30;43.74;94759.09;4993802;28;7309;-62
2022/07/21 01:33:12;;;;;;;;;;;;;;;29.27;43.46;94746.31;4991073;28;7356;-62
2022/07/21 01:35:50;;;;;;;;;;;;;;;29.29;43.13;94749.28;5002127;28;7229;-62
2022/07/21 01:43:53;;;;;;;;;;;;;;;29.28;43.10;94747.78;5009684;28;7319;-62
2022/07/21 01:46:20;;;;;;;;;;;;;;;29.25;43.61;94743.31;4986299;28;7106;-62
2022/07/21 01:48:49;;;;;;;;;;;;;;;29.27;43.79;94740.75;4994943;28;9061;-62
2022/07/21 01:51:15;;;;;;;;;;;;;;;29.26;43.91;94739.25;4981787;28;7317;-62
2022/07/21 01:53:41;;;;;;;;;;;;;;;29.25;43.77;94738.53;4998882;28;7221;-62
2022/07/21 01:56:07;;;;;;;;;;;;;;;29.25;43.70;94738.53;5011724;28;9115;-62
2022/07/21 01:58:39;;;;;;;;;;;;;;;29.22;43.49;94739.56;4992805;28;9513;-62
2022/07/21 02:01:05;;;;;;;;;;;;;;;29.22;44.22;94733.28;5001156;28;7268;-62
2022/07/21 02:03:35;;;;;;;;;;;;;;;29.24;43.76;94731.47;5009045;28;6923;-62
2022/07/21 02:06:07;;;;;;;;;;;;;;;29.22;43.77;94730.50;4990337;28;7393;-62
2022/07/21 02:08:33;;;;;;;;;;;;;;;29.22;44.34;94730.50;5003669;28;7326;-62
2022/07/21 02:11:01;;;;;;;;;;;;;;;29.22;44.43;94733.28;4994308;28;7111;-62
2022/07/21 02:13:42;;;;;;;;;;;;;;;29.21;44.06;94726.97;4997855;28;7000;-62
2022/07/21 02:16:10;;;;;;;;;;;;;;;29.22;44.21;94734.03;5002192;28;7066;-62
2022/07/21 02:18:47;;;;;;;;;;;;;;;29.21;44.11;94732.50;4995767;28;6992;-62
2022/07/21 02:21:24;;;;;;;;;;;;;;;29.21;44.21;94731.78;5017037;28;7222;-62
2022/07/21 02:23:50;;;;;;;;;;;;;;;29.20;43.58;94731.03;4998187;28;9760;-62
2022/07/21 02:26:26;;;;;;;;;;;;;;;29.21;43.61;94726.25;4993199;28;7193;-62
2022/07/21 02:28:54;;;;;;;;;;;;;;;29.19;43.94;94731.56;5013462;28;8899;-62
2022/07/21 02:31:20;;;;;;;;;;;;;;;29.19;44.01;94740.59;5012784;28;7223;-62
2022/07/21 02:34:00;;;;;;;;;;;;;;;29.18;44.19;94732.84;4998400;28;9060;-62
2022/07/21 02:36:34;;;;;;;;;;;;;;;29.17;44.43;94736.91;4999716;28;7329;-62
2022/07/21 02:39:30;;;;;;;;;;;;;;;29.19;43.81;94737.13;4994799;28;7230;-62
2022/07/21 02:41:57;;;;;;;;;;;;;;;29.16;44.60;94740.91;4954980;28;8804;-62
2022/07/21 02:44:31;;;;;;;;;;;;;;;29.17;44.44;94736.91;4971553;28;7439;-62
2022/07/21 02:46:59;;;;;;;;;;;;;;;29.16;44.43;94724.28;4953540;28;7196;-62
2022/07/21 02:49:25;;;;;;;;;;;;;;;29.16;44.28;94736.13;4957938;28;7059;-62
2022/07/21 02:51:53;;;;;;;;;;;;;;;29.16;44.18;94738.91;4951131;28;7188;-62
2022/07/21 02:54:19;;;;;;;;;;;;;;;29.14;44.00;94729.59;4970383;28;9118;-62
2022/07/21 02:56:45;;;;;;;;;;;;;;;29.13;44.81;94736.41;4953426;28;9511;-62
2022/07/21 02:59:16;;;;;;;;;;;;;;;29.15;44.69;94728.31;4965316;28;9037;-62
2022/07/21 03:01:42;;;;;;;;;;;;;;;29.14;44.31;94732.38;4950424;28;7207;-62
2022/07/21 03:04:08;;;;;;;;;;;;;;;29.12;44.32;94723.84;4951766;28;7085;-62
2022/07/21 03:06:34;;;;;;;;;;;;;;;29.13;45.03;94730.84;4963924;28;7105;-62
2022/07/21 03:09:00;;;;;;;;;;;;;;;29.13;44.00;94736.41;4963070;28;7173;-62
2022/07/21 03:11:29;;;;;;;;;;;;;;;29.12;44.32;94738.44;4959200;28;8265;-62
2022/07/21 03:13:57;;;;;;;;;;;;;;;29.10;44.90;94750.03;4953255;28;9136;-62
2022/07/21 03:16:28;;;;;;;;;;;;;;;29.10;44.26;94741.72;4952953;28;7215;-62
2022/07/21 03:18:54;;;;;;;;;;;;;;;29.09;44.00;94743.00;5000851;28;9361;-62
2022/07/21 03:21:22;;;;;;;;;;;;;;;29.10;44.72;94750.03;5006299;28;9117;-62
2022/07/21 03:23:50;;;;;;;;;;;;;;;29.12;44.68;94748.75;5008112;28;8969;-62
2022/07/21 03:26:17;;;;;;;;;;;;;;;29.12;44.57;94754.31;4981471;28;9402;-62
2022/07/21 03:28:44;;;;;;;;;;;;;;;29.10;44.38;94755.56;4997254;28;9456;-62
2022/07/21 03:31:12;;;;;;;;;;;;;;;29.08;44.54;94758.13;4993728;28;7491;-62
2022/07/21 03:33:41;;;;;;;;;;;;;;;29.08;44.43;94747.03;4989515;28;7100;-62
2022/07/21 03:36:07;;;;;;;;;;;;;;;29.08;44.43;94752.56;5006542;28;7289;-62
2022/07/21 03:38:35;;;;;;;;;;;;;;;29.07;44.18;94753.09;5013483;28;7615;-62
2022/07/21 03:41:29;;;;;;;;;;;;;;;29.06;44.34;94754.38;4998280;28;10010;-62
2022/07/21 03:43:55;;;;;;;;;;;;;;;29.05;44.72;94759.19;4932281;29;7145;-62
2022/07/21 03:46:23;;;;;;;;;;;;;;;29.06;45.15;94759.91;4916676;29;9260;-62
2022/07/21 03:48:49;;;;;;;;;;;;;;;29.04;44.65;94756.91;4917681;29;7018;-62
2022/07/21 03:51:15;;;;;;;;;;;;;;;29.03;44.33;94761.72;4910334;29;9321;-62
2022/07/21 03:53:41;;;;;;;;;;;;;;;29.03;44.38;94756.19;4914097;29;7089;-62
2022/07/21 03:56:07;;;;;;;;;;;;;;;29.02;44.97;94765.75;4932147;29;6872;-62
2022/07/21 03:58:44;;;;;;;;;;;;;;;29.03;44.46;94772.06;4926587;28;7071;-62
2022/07/21 04:01:24;;;;;;;;;;;;;;;29.00;44.50;94773.84;4922956;29;7513;-62
2022/07/21 04:03:50;;;;;;;;;;;;;;;29.02;44.57;94774.06;4928559;28;7273;-61
2022/07/21 04:06:21;;;;;;;;;;;;;;;28.99;44.65;94769.56;4918505;29;7232;-62
2022/07/21 04:08:52;;;;;;;;;;;;;;;29.03;44.72;94772.81;4927869;29;7255;-62
2022/07/21 04:11:18;;;;;;;;;;;;;;;29.01;44.36;94777.38;4931574;29;6998;-62
2022/07/21 04:13:44;;;;;;;;;;;;;;;28.99;44.27;94772.34;4929348;29;6999;-62
2022/07/21 04:16:12;;;;;;;;;;;;;;;29.01;44.75;94777.38;4911006;29;7240;-62
2022/07/21 04:18:47;;;;;;;;;;;;;;;29.01;44.92;94777.38;4931637;29;8412;-62
2022/07/21 04:21:14;;;;;;;;;;;;;;;29.00;44.37;94778.63;4982975;28;7289;-62
2022/07/21 04:23:48;;;;;;;;;;;;;;;29.00;44.65;94779.38;5008985;28;7006;-62
2022/07/21 04:26:18;;;;;;;;;;;;;;;29.00;45.21;94784.94;4996330;28;7322;-62
2022/07/21 04:28:46;;;;;;;;;;;;;;;28.99;44.91;94788.94;5015199;28;9041;-62
2022/07/21 04:31:13;;;;;;;;;;;;;;;28.98;44.48;94787.47;4994228;28;7280;-61
2022/07/21 04:33:51;;;;;;;;;;;;;;;29.00;44.74;94784.16;4993278;28;6989;-61
2022/07/21 04:36:26;;;;;;;;;;;;;;;28.98;44.45;94778.41;4993769;28;6931;-61
2022/07/21 04:38:57;;;;;;;;;;;;;;;28.98;44.87;94787.47;4981854;28;7143;-61
2022/07/21 04:41:45;;;;;;;;;;;;;;;29.00;46.01;94787.69;4995364;28;7066;-61
2022/07/21 04:44:12;;;;;;;;;;;;;;;29.01;45.53;94791.22;4995199;28;9000;-63
2022/07/21 04:46:38;;;;;;;;;;;;;;;28.99;44.92;94782.69;4994404;28;7185;-60
2022/07/21 04:49:04;;;;;;;;;;;;;;;28.97;45.61;94788.72;4992123;28;7401;-63
2022/07/21 04:51:30;;;;;;;;;;;;;;;28.96;45.17;94789.25;5009662;28;7277;-63
2022/07/21 04:53:56;;;;;;;;;;;;;;;28.98;45.32;94786.72;5000342;28;7004;-63
2022/07/21 04:56:26;;;;;;;;;;;;;;;28.98;44.70;94786.72;5025918;28;7070;-62
2022/07/21 04:58:52;;;;;;;;;;;;;;;28.95;44.93;94785.75;5009043;28;8989;-63
2022/07/21 05:01:18;;;;;;;;;;;;;;;28.96;44.86;94790.03;5006958;28;9240;-60
2022/07/21 05:03:47;;;;;;;;;;;;;;;28.97;45.18;94791.50;5006930;28;10355;-61
2022/07/21 05:06:15;;;;;;;;;;;;;;;28.94;45.18;94795.34;4996556;28;7658;-60
2022/07/21 05:08:41;;;;;;;;;;;;;;;28.95;44.77;94790.53;4995443;28;7324;-60
2022/07/21 05:11:09;;;;;;;;;;;;;;;28.96;44.70;94792.03;4992947;28;7363;-62
2022/07/21 05:13:35;;;;;;;;;;;;;;;28.95;45.87;94785.75;5013101;28;7087;-62
2022/07/21 05:16:01;;;;;;;;;;;;;;;28.97;46.45;94790.78;5012719;28;9245;-62
2022/07/21 05:18:29;;;;;;;;;;;;;;;28.97;46.07;94788.72;5009746;28;9252;-62
2022/07/21 05:20:57;;;;;;;;;;;;;;;28.98;45.29;94784.69;5004838;28;7824;-62
2022/07/21 05:23:23;;;;;;;;;;;;;;;28.99;45.25;94786.19;4988988;28;8221;-62
2022/07/21 05:25:49;;;;;;;;;;;;;;;28.98;45.53;94781.19;4990209;28;7435;-62
2022/07/21 05:28:16;;;;;;;;;;;;;;;28.99;45.25;94785.47;4993337;28;7091;-62
2022/07/21 05:30:43;;;;;;;;;;;;;;;29.00;45.37;94778.63;5009457;28;9617;-61
2022/07/21 05:33:10;;;;;;;;;;;;;;;28.99;44.75;94786.19;4994559;28;9611;-62
2022/07/21 05:35:38;;;;;;;;;;;;;;;29.01;44.83;94791.22;5001369;28;7240;-62
2022/07/21 05:38:05;;;;;;;;;;;;;;;29.01;44.54;94791.94;5011870;28;7250;-61
2022/07/21 05:40:33;;;;;;;;;;;;;;;29.00;44.66;94782.16;5012408;28;8697;-61
2022/07/21 05:42:59;;;;;;;;;;;;;;;29.01;44.85;94786.41;4997003;28;7246;-61
2022/07/21 05:45:25;;;;;;;;;;;;;;;29.02;44.67;94776.09;5007540;28;7235;-61
2022/07/21 05:47:53;;;;;;;;;;;;;;;29.02;44.79;94782.38;4993700;28;9115;-61
2022/07/21 05:50:21;;;;;;;;;;;;;;;28.99;45.29;94785.47;5013807;28;9039;-61
2022/07/21 05:52:47;;;;;;;;;;;;;;;28.98;45.00;94786.72;4991076;28;9113;-61
2022/07/21 05:55:13;;;;;;;;;;;;;;;29.01;45.13;94794.00;4997515;28;8999;-62
2022/07/21 05:57:40;;;;;;;;;;;;;;;29.00;45.36;94800.78;5009499;28;7143;-61
2022/07/21 06:00:07;;;;;;;;;;;;;;;28.97;44.98;94788.00;4997346;28;8688;-61
2022/07/21 06:02:36;;;;;;;;;;;;;;;28.98;45.08;94793.00;4990984;28;7417;-61
2022/07/21 06:05:02;;;;;;;;;;;;;;;28.99;45.21;94797.25;4997482;28;6993;-61
2022/07/21 06:07:45;;;;;;;;;;;;;;;28.99;45.16;94794.50;4990018;28;7063;-61
2022/07/21 06:10:18;;;;;;;;;;;;;;;28.98;44.63;94793.00;4977890;28;7458;-61
2022/07/21 06:12:44;;;;;;;;;;;;;;;29.00;45.49;94798.00;4992897;28;7961;-61
2022/07/21 06:15:14;;;;;;;;;;;;;;;28.94;45.10;94803.66;5006081;28;8026;-62
2022/07/21 06:17:43;;;;;;;;;;;;;;;28.96;45.39;94803.09;4995861;28;7248;-62
2022/07/21 06:20:17;;;;;;;;;;;;;;;28.95;45.32;94805.13;5018866;28;7187;-62
2022/07/21 06:22:47;;;;;;;;;;;;;;;28.93;44.98;94809.69;4996832;28;8778;-62
2022/07/21 06:25:17;;;;;;;;;;;;;;;28.97;44.71;94812.94;5012095;28;9228;-62
2022/07/21 06:27:43;;;;;;;;;;;;;;;28.96;44.41;94814.94;5002133;28;7199;-62
2022/07/21 06:30:15;;;;;;;;;;;;;;;28.93;44.70;94812.44;4993612;28;7028;-61
2022/07/21 06:32:41;;;;;;;;;;;;;;;28.93;45.01;94812.44;5019135;28;7327;-62
2022/07/21 06:35:09;;;;;;;;;;;;;;;28.88;44.71;94811.25;4996112;28;9221;-62
2022/07/21 06:37:35;;;;;;;;;;;;;;;28.89;45.29;94809.22;4999535;28;7295;-62
2022/07/21 06:40:04;;;;;;;;;;;;;;;28.88;44.78;94822.31;5013616;28;9118;-62
2022/07/21 06:42:34;;;;;;;;;;;;;;;28.87;44.90;94820.84;4996432;28;7283;-63
2022/07/21 06:45:02;;;;;;;;;;;;;;;28.88;44.77;94816.06;4995385;28;7446;-62
2022/07/21 06:47:32;;;;;;;;;;;;;;;28.85;45.23;94819.88;4995977;28;7154;-62
2022/07/21 06:50:02;;;;;;;;;;;;;;;28.80;44.99;94815.88;5011330;28;9144;-62
2022/07/21 06:52:32;;;;;;;;;;;;;;;28.78;44.69;94818.44;4999930;28;9113;-62
2022/07/21 06:55:00;;;;;;;;;;;;;;;28.80;44.84;94826.97;5001215;28;7885;-61
2022/07/21 06:57:27;;;;;;;;;;;;;;;28.80;45.51;94821.44;5013441;28;7301;-62
2022/07/21 06:59:54;;;;;;;;;;;;;;;28.82;44.86;94829.19;5019088;28;7293;-62
2022/07/21 07:02:22;;;;;;;;;;;;;;;28.82;44.71;94831.97;5004309;28;6866;-62
2022/07/21 07:05:05;;;;;;;;;;;;;;;28.83;44.78;94825.94;4989183;28;9078;-62
2022/07/21 07:07:31;;;;;;;;;;;;;;;28.83;44.93;94825.19;5017575;28;7251;-62
2022/07/21 07:10:00;;;;;;;;;;;;;;;28.83;44.89;94834.25;5017904;28;7197;-62
2022/07/21 07:12:28;;;;;;;;;;;;;;;28.83;45.03;94837.00;4999666;28;9091;-62
2022/07/21 07:14:54;;;;;;;;;;;;;;;28.81;45.19;94834.00;5017155;28;7079;-62
2022/07/21 07:17:27;;;;;;;;;;;;;;;28.80;44.74;94835.28;5013024;28;7867;-62
2022/07/21 07:20:07;;;;;;;;;;;;;;;28.83;45.47;94837.00;5017096;28;9075;-62
2022/07/21 07:22:40;;;;;;;;;;;;;;;28.83;45.37;94833.47;5003045;28;7306;-62
2022/07/21 07:25:07;;;;;;;;;;;;;;;28.84;45.26;94844.03;5023769;28;7827;-62
2022/07/21 07:28:12;;;;;;;;;;;;;;;28.84;44.92;94844.03;4994523;28;7452;-62
2022/07/21 07:30:39;;;;;;;;;;;;;;;28.86;44.83;94847.03;4951638;28;7575;-62
2022/07/21 07:33:07;;;;;;;;;;;;;;;28.86;44.57;94847.03;4937127;28;9033;-62
2022/07/21 07:35:50;;;;;;;;;;;;;;;28.87;44.55;94845.75;4952390;28;8576;-62
2022/07/21 07:38:25;;;;;;;;;;;;;;;28.90;45.19;94847.50;4944885;28;9438;-62
2022/07/21 07:40:52;;;;;;;;;;;;;;;28.91;44.60;94845.47;4934118;28;7023;-62
2022/07/21 07:43:18;;;;;;;;;;;;;;;28.89;44.45;94839.69;4946614;28;9079;-62
2022/07/21 07:45:44;;;;;;;;;;;;;;;28.88;45.00;94844.47;4949508;28;9124;-62
2022/07/21 07:48:12;;;;;;;;;;;;;;;28.88;44.52;94844.47;4952333;28;7249;-62
2022/07/21 07:50:43;;;;;;;;;;;;;;;28.90;44.22;94846.75;4943988;28;8934;-62
2022/07/21 07:53:11;;;;;;;;;;;;;;;28.90;44.26;94841.97;4922515;28;7206;-62
2022/07/21 07:55:40;;;;;;;;;;;;;;;28.90;44.54;94847.50;4934498;28;7040;-62
2022/07/21 07:58:08;;;;;;;;;;;;;;;28.91;44.41;94842.69;4932169;28;7093;-62
2022/07/21 08:00:39;;;;;;;;;;;;;;;28.89;44.34;94840.44;4950367;28;6997;-62
2022/07/21 08:03:05;;;;;;;;;;;;;;;28.90;44.10;94844.72;4951524;28;8735;-62
2022/07/21 08:05:31;;;;;;;;;;;;;;;28.92;44.26;94841.44;5006120;28;7227;-62
2022/07/21 08:07:59;;;;;;;;;;;;;;;28.90;44.35;94849.50;5012893;28;7612;-62
2022/07/21 08:10:25;;;;;;;;;;;;;;;28.90;44.41;94847.50;5004364;28;8509;-62
2022/07/21 08:12:51;;;;;;;;;;;;;;;28.90;44.15;94849.50;5018839;28;6984;-62
2022/07/21 08:15:17;;;;;;;;;;;;;;;28.91;44.00;94848.97;4994546;28;7820;-62
2022/07/21 08:17:43;;;;;;;;;;;;;;;28.91;44.19;94851.75;5000434;28;7084;-62
2022/07/21 08:20:10;;;;;;;;;;;;;;;28.90;44.41;94863.34;4984871;28;9449;-62
2022/07/21 08:22:36;;;;;;;;;;;;;;;28.88;44.23;94861.09;4985342;28;9044;-62
2022/07/21 08:25:05;;;;;;;;;;;;;;;28.88;44.35;94858.31;4993523;28;8172;-62
2022/07/21 08:27:31;;;;;;;;;;;;;;;28.90;43.79;94866.88;5005327;28;7215;-62
2022/07/21 08:29:57;;;;;;;;;;;;;;;28.90;44.36;94863.34;5009779;28;7185;-62
2022/07/21 08:32:24;;;;;;;;;;;;;;;28.92;44.59;94867.09;5006767;28;9093;-62
2022/07/21 08:34:50;;;;;;;;;;;;;;;28.92;44.57;94861.56;5005443;28;7927;-62
2022/07/21 08:37:20;;;;;;;;;;;;;;;28.92;44.41;94867.09;5010703;28;9055;-62
2022/07/21 08:39:47;;;;;;;;;;;;;;;28.93;43.75;94856.75;4979794;28;7184;-62
2022/07/21 08:42:17;;;;;;;;;;;;;;;28.92;44.59;94858.03;5009442;28;7900;-62
2022/07/21 08:44:56;;;;;;;;;;;;;;;28.93;44.06;94856.75;5011836;28;9133;-62
2022/07/21 08:47:28;;;;;;;;;;;;;;;28.92;43.96;94861.56;5002983;28;7214;-62
2022/07/21 08:49:55;;;;;;;;;;;;;;;28.94;44.51;94861.78;4994725;28;9196;-62
2022/07/21 08:52:21;;;;;;;;;;;;;;;28.95;44.45;94860.50;5020149;28;7181;-62
2022/07/21 08:54:49;;;;;;;;;;;;;;;28.94;43.98;94855.50;4991521;28;9211;-62
2022/07/21 08:57:17;;;;;;;;;;;;;;;28.94;44.64;94864.56;5007636;28;7929;-62
2022/07/21 08:59:44;;;;;;;;;;;;;;;28.92;43.94;94866.34;5003243;28;7272;-62
2022/07/21 09:02:30;;;;;;;;;;;;;;;28.93;44.40;94870.59;4988803;28;9109;-62
2022/07/21 09:04:58;;;;;;;;;;;;;;;28.91;44.60;94860.06;5000253;28;7255;-62
2022/07/21 09:07:57;;;;;;;;;;;;;;;28.95;44.03;94866.03;5005448;28;6984;-61
2022/07/21 09:10:47;;;;;;;;;;;;;;;28.95;44.54;94860.50;4917003;29;8792;-62
2022/07/21 09:13:34;;;;;;;;;;;;;;;28.92;44.51;94863.59;4897187;29;9440;-62
2022/07/21 09:16:13;;;;;;;;;;;;;;;28.89;44.26;94854.28;4901102;29;7213;-62
2022/07/21 09:18:57;;;;;;;;;;;;;;;28.93;43.96;94857.50;4898056;29;9054;-62
2022/07/21 09:21:24;;;;;;;;;;;;;;;28.93;44.18;94851.22;4916508;29;9344;-62
2022/07/21 09:24:13;;;;;;;;;;;;;;;28.92;44.48;94849.75;4896124;29;7297;-62
2022/07/21 09:26:59;;;;;;;;;;;;;;;28.92;44.03;94856.03;4896612;29;7220;-62
2022/07/21 09:29:32;;;;;;;;;;;;;;;28.95;43.58;94845.91;4891614;29;7584;-62
2022/07/21 09:32:12;;;;;;;;;;;;;;;28.94;43.64;94853.50;4909110;29;8933;-63
2022/07/21 09:34:38;;;;;;;;;;;;;;;28.93;43.74;94851.22;4909449;29;7163;-62
2022/07/21 09:37:07;;;;;;;;;;;;;;;28.94;43.51;94842.41;4890744;29;7111;-62
2022/07/21 09:39:46;;;;;;;;;;;;;;;28.91;44.02;94835.13;4904926;29;8797;-62
2022/07/21 09:42:20;;;;;;;;;;;;;;;28.92;43.79;94842.19;4891035;29;7894;-62
2022/07/21 09:45:34;;;;;;;;;;;;;;;28.92;43.41;94833.13;4912294;29;9095;-62
2022/07/21 09:48:02;;;;;;;;;;;;;;;28.93;43.64;94829.06;5012090;28;9281;-62
2022/07/21 09:50:27;;;;;;;;;;;;;;;28.94;44.09;94825.78;5006065;28;9444;-62
2022/07/21 09:52:57;;;;;;;;;;;;;;;28.92;43.63;94822.81;5009519;28;7276;-62
2022/07/21 09:55:25;;;;;;;;;;;;;;;28.92;43.87;94833.13;4995185;28;7068;-62
2022/07/21 09:57:58;;;;;;;;;;;;;;;28.90;43.46;94824.59;5005705;28;7014;-62
2022/07/21 10:00:59;;;;;;;;;;;;;;;28.94;43.45;94836.13;5006879;28;8768;-63
2022/07/21 10:03:27;;;;;;;;;;;;;;;28.92;43.79;94828.34;5009578;28;8990;-61
2022/07/21 10:05:56;;;;;;;;;;;;;;;28.93;43.14;94829.06;4992089;28;9089;-61
2022/07/21 10:08:28;;;;;;;;;;;;;;;28.91;43.42;94834.38;5015497;28;8732;-61
2022/07/21 10:10:54;;;;;;;;;;;;;;;28.90;43.31;94825.34;5007686;28;7284;-61
2022/07/21 10:13:21;;;;;;;;;;;;;;;28.92;43.04;94833.88;5003202;28;7238;-61
2022/07/21 10:15:47;;;;;;;;;;;;;;;28.90;43.27;94836.44;4997810;28;7199;-62
2022/07/21 10:18:17;;;;;;;;;;;;;;;28.90;43.53;94830.88;4989883;28;7521;-62
2022/07/21 10:20:52;;;;;;;;;;;;;;;28.90;42.95;94825.34;4974375;28;8013;-62
2022/07/21 10:23:42;;;;;;;;;;;;;;;28.91;43.00;94831.63;4986812;28;7206;-62
2022/07/21 10:26:10;;;;;;;;;;;;;;;28.91;42.58;94826.84;4993973;28;7220;-64
2022/07/21 10:28:38;;;;;;;;;;;;;;;28.92;42.79;94828.34;4998703;28;9134;-62
2022/07/21 10:31:16;;;;;;;;;;;;;;;28.93;42.43;94818.75;5004322;28;7183;-62
2022/07/21 10:33:48;;;;;;;;;;;;;;;28.93;42.90;94821.50;4980014;28;7147;-61
2022/07/21 10:36:34;;;;;;;;;;;;;;;28.93;42.58;94818.75;4990577;28;7159;-62
2022/07/21 10:39:30;;;;;;;;;;;;;;;28.95;42.23;94821.75;5002452;28;6975;-62
2022/07/21 10:41:59;;;;;;;;;;;;;;;28.97;42.86;94818.47;4999251;28;7308;-62
2022/07/21 10:44:30;;;;;;;;;;;;;;;28.99;43.22;94821.47;5010367;28;9520;-61
2022/07/21 10:47:30;;;;;;;;;;;;;;;28.99;42.83;94816.66;5013629;28;8045;-62
2022/07/21 10:50:07;;;;;;;;;;;;;;;29.00;42.07;94817.41;5016985;28;9391;-61
2022/07/21 10:52:36;;;;;;;;;;;;;;;29.05;43.28;94819.34;5009624;28;7221;-61
2022/07/21 10:55:23;;;;;;;;;;;;;;;29.10;42.55;94819.28;4985237;28;6863;-62
2022/07/21 10:58:12;;;;;;;;;;;;;;;29.12;43.61;94813.22;5004597;28;7337;-62
2022/07/21 11:01:04;;;;;;;;;;;;;;;29.13;43.05;94809.16;5005336;28;9468;-62
2022/07/21 11:03:33;;;;;;;;;;;;;;;29.15;42.76;94809.41;4997621;28;7084;-62
2022/07/21 11:06:32;;;;;;;;;;;;;;;29.15;42.54;94808.63;5003091;28;7043;-62
2022/07/21 11:09:10;;;;;;;;;;;;;;;29.15;42.45;94800.31;4907963;29;7790;-62
2022/07/21 11:12:00;;;;;;;;;;;;;;;29.17;43.52;94806.16;4913037;29;9451;-62
2022/07/21 11:14:38;;;;;;;;;;;;;;;29.17;43.72;94804.09;4904189;29;7274;-62
2022/07/21 11:17:07;;;;;;;;;;;;;;;29.21;43.53;94809.34;4912955;29;9265;-62
2022/07/21 11:19:38;;;;;;;;;;;;;;;29.23;43.04;94801.28;4911555;29;7074;-62
2022/07/21 11:22:23;;;;;;;;;;;;;;;29.23;43.28;94799.22;4913886;29;7462;-62
2022/07/21 11:24:58;;;;;;;;;;;;;;;29.26;43.59;94800.19;4909923;29;9119;-62
2022/07/21 11:27:39;;;;;;;;;;;;;;;29.27;43.12;94796.94;4902592;29;8362;-62
2022/07/21 11:30:11;;;;;;;;;;;;;;;29.25;42.62;94793.94;4900078;29;7654;-62
2022/07/21 11:32:56;;;;;;;;;;;;;;;29.26;42.86;94797.44;4902901;29;7826;-62
2022/07/21 11:35:21;;;;;;;;;;;;;;;29.24;43.24;94788.91;4913098;29;7005;-62
2022/07/21 11:37:50;;;;;;;;;;;;;;;29.25;43.28;94782.09;4913833;29;8740;-62
2022/07/21 11:40:19;;;;;;;;;;;;;;;29.26;42.56;94783.56;4904938;29;7239;-62
2022/07/21 11:42:47;;;;;;;;;;;;;;;29.23;42.86;94787.41;4900291;29;9086;-62
2022/07/21 11:45:15;;;;;;;;;;;;;;;29.28;42.85;94775.50;4984628;28;9030;-62
2022/07/21 11:47:41;;;;;;;;;;;;;;;29.35;43.23;94775.63;4993030;28;7297;-62
2022/07/21 11:50:12;;;;;;;;;;;;;;;29.41;43.48;94775.53;5012474;28;8750;-62
2022/07/21 11:52:39;;;;;;;;;;;;;;;29.44;42.70;94780.03;4988683;28;7723;-62
2022/07/21 11:55:09;;;;;;;;;;;;;;;29.46;42.87;94774.72;4984320;28;9059;-62
2022/07/21 11:57:40;;;;;;;;;;;;;;;29.44;42.78;94774.50;4990253;28;9068;-61
2022/07/21 12:00:07;;;;;;;;;;;;;;;29.46;42.13;94769.19;4994030;28;9259;-62
2022/07/21 12:02:36;;;;;;;;;;;;;;;29.47;41.43;94770.69;5011876;28;9230;-62
2022/07/21 12:05:08;;;;;;;;;;;;;;;29.50;42.36;94767.59;4997635;28;9173;-61
2022/07/21 12:07:53;;;;;;;;;;;;;;;29.51;42.05;94765.56;4993791;28;9652;-62
2022/07/21 12:10:29;;;;;;;;;;;;;;;29.45;41.78;94756.59;4996188;28;7133;-61
2022/07/21 12:13:01;;;;;;;;;;;;;;;29.45;41.28;94759.38;5003777;28;7137;-61
2022/07/21 12:15:31;;;;;;;;;;;;;;;29.47;40.95;94759.59;5000133;28;7256;-62
2022/07/21 12:18:17;;;;;;;;;;;;;;;29.45;41.22;94748.28;4997933;28;8969;-61
2022/07/21 12:21:14;;;;;;;;;;;;;;;29.49;42.41;94746.69;5011336;28;7048;-62
2022/07/21 12:24:06;;;;;;;;;;;;;;;29.48;41.34;94744.44;5006556;28;8631;-62
2022/07/21 12:26:34;;;;;;;;;;;;;;;29.44;41.11;94738.47;5013597;28;9004;-61
2022/07/21 12:29:33;;;;;;;;;;;;;;;29.50;41.88;94745.41;4999623;28;8385;-61
2022/07/21 12:32:00;;;;;;;;;;;;;;;29.55;41.84;94741.06;4908504;29;7904;-62
2022/07/21 12:34:48;;;;;;;;;;;;;;;29.60;41.70;94738.19;4924960;29;9116;-62
2022/07/21 12:37:17;;;;;;;;;;;;;;;29.63;41.55;94741.94;4905582;29;7274;-62
2022/07/21 12:39:58;;;;;;;;;;;;;;;29.63;41.54;94739.16;4933740;29;7222;-62
2022/07/21 12:42:40;;;;;;;;;;;;;;;29.62;41.62;94746.00;4915501;29;7277;-62
2022/07/21 12:45:20;;;;;;;;;;;;;;;29.60;41.77;94740.97;4931669;29;7267;-62
2022/07/21 12:48:08;;;;;;;;;;;;;;;29.59;41.76;94744.28;4916292;29;7405;-62
2022/07/21 12:50:35;;;;;;;;;;;;;;;29.57;41.26;94732.97;4928913;29;9200;-62
2022/07/21 12:53:03;;;;;;;;;;;;;;;29.55;41.00;94732.75;4919210;29;7234;-62
2022/07/21 12:55:29;;;;;;;;;;;;;;;29.54;41.47;94734.00;4931180;29;8831;-62
2022/07/21 12:57:57;;;;;;;;;;;;;;;29.53;41.81;94732.53;4904400;29;7478;-62
2022/07/21 13:00:43;;;;;;;;;;;;;;;29.50;41.99;94730.81;4928588;29;7703;-62
2022/07/21 13:03:12;;;;;;;;;;;;;;;29.51;41.19;94729.53;4901820;29;7487;-62
2022/07/21 13:05:51;;;;;;;;;;;;;;;29.48;40.44;94725.81;4916722;29;9144;-62
2022/07/21 13:08:18;;;;;;;;;;;;;;;29.50;40.78;94725.25;4960175;28;6997;-61
2022/07/21 13:10:50;;;;;;;;;;;;;;;29.53;41.50;94721.44;5009712;28;7219;-62
2022/07/21 13:13:25;;;;;;;;;;;;;;;29.57;41.57;94719.84;4984328;28;7118;-61
2022/07/21 13:15:57;;;;;;;;;;;;;;;29.59;40.38;94722.09;4991937;28;8612;-62
2022/07/21 13:18:26;;;;;;;;;;;;;;;29.58;40.67;94720.63;4993265;28;7219;-61
2022/07/21 13:20:58;;;;;;;;;;;;;;;29.60;40.60;94726.38;4990262;28;9376;-61
2022/07/21 13:23:28;;;;;;;;;;;;;;;29.63;41.37;94712.19;5011747;28;7077;-63
2022/07/21 13:25:57;;;;;;;;;;;;;;;29.64;40.21;94712.94;4993798;28;7383;-62
2022/07/21 13:28:25;;;;;;;;;;;;;;;29.66;40.50;94711.13;5009989;28;9291;-62